sensor_id;sensor_type;location;lat;lon;timestamp;pressure;altitude;pressure_sealevel;temperature;humidity
11971;BME280;6045;42.682;23.294;2024-03-08T00:01:35;94692.69;;;7.56;83.16
11971;BME280;6045;42.682;23.294;2024-03-08T00:04:06;94689.66;;;7.52;82.98
11971;BME280;6045;42.682;23.294;2024-03-08T00:06:33;94688.25;;;7.43;82.86
11971;BME280;6045;42.682;23.294;2024-03-08T00:09:02;94691.50;;;7.45;83.33
11971;BME280;6045;42.682;23.294;2024-03-08T00:11:29;94678.88;;;7.34;83.60
11971;BME280;6045;42.682;23.294;2024-03-08T00:13:56;94681.31;;;7.36;83.52
11971;BME280;6045;42.682;23.294;2024-03-08T00:16:23;94683.34;;;7.34;83.39
11971;BME280;6045;42.682;23.294;2024-03-08T00:18:50;94682.38;;;7.15;83.28
11971;BME280;6045;42.682;23.294;2024-03-08T00:21:18;94673.59;;;7.15;83.92
11971;BME280;6045;42.682;23.294;2024-03-08T00:23:46;94678.91;;;7.15;84.27
11971;BME280;6045;42.682;23.294;2024-03-08T00:26:12;94673.38;;;7.23;84.20
11971;BME280;6045;42.682;23.294;2024-03-08T00:28:40;94681.31;;;7.36;83.61
11971;BME280;6045;42.682;23.294;2024-03-08T00:31:07;94678.84;;;7.28;83.30
11971;BME280;6045;42.682;23.294;2024-03-08T00:33:33;94680.94;;;7.13;83.42
11971;BME280;6045;42.682;23.294;2024-03-08T00:36:00;94677.50;;;6.99;83.50
11971;BME280;6045;42.682;23.294;2024-03-08T00:38:29;94673.41;;;7.03;83.91
11971;BME280;6045;42.682;23.294;2024-03-08T00:40:57;94671.13;;;7.07;84.23
11971;BME280;6045;42.682;23.294;2024-03-08T00:43:24;94671.13;;;7.07;84.80
11971;BME280;6045;42.682;23.294;2024-03-08T00:45:54;94663.19;;;6.94;85.08
11971;BME280;6045;42.682;23.294;2024-03-08T00:48:21;94656.84;;;6.88;85.41
11971;BME280;6045;42.682;23.294;2024-03-08T00:50:48;94669.13;;;6.82;85.72
11971;BME280;6045;42.682;23.294;2024-03-08T00:53:15;94659.72;;;6.93;85.92
11971;BME280;6045;42.682;23.294;2024-03-08T00:55:45;94669.94;;;6.89;86.53
11971;BME280;6045;42.682;23.294;2024-03-08T00:58:13;94656.44;;;6.98;86.97
11971;BME280;6045;42.682;23.294;2024-03-08T01:00:40;94656.06;;;6.74;87.22
11971;BME280;6045;42.682;23.294;2024-03-08T01:03:07;94651.13;;;6.71;87.92
11971;BME280;6045;42.682;23.294;2024-03-08T01:05:36;94641.34;;;6.78;87.57
11971;BME280;6045;42.682;23.294;2024-03-08T01:08:04;94647.06;;;6.82;87.28
11971;BME280;6045;42.682;23.294;2024-03-08T01:10:31;94645.44;;;6.74;87.73
11971;BME280;6045;42.682;23.294;2024-03-08T01:12:59;94648.69;;;6.76;87.92
11971;BME280;6045;42.682;23.294;2024-03-08T01:15:26;94647.06;;;6.69;87.65
11971;BME280;6045;42.682;23.294;2024-03-08T01:17:55;94644.81;;;6.72;87.82
11971;BME280;6045;42.682;23.294;2024-03-08T01:20:22;94647.47;;;6.72;87.63
11971;BME280;6045;42.682;23.294;2024-03-08T01:22:48;94647.69;;;6.71;87.18
11971;BME280;6045;42.682;23.294;2024-03-08T01:25:16;94645.22;;;6.82;86.88
11971;BME280;6045;42.682;23.294;2024-03-08T01:27:43;94646.47;;;6.73;86.94
11971;BME280;6045;42.682;23.294;2024-03-08T01:30:12;94629.91;;;6.71;86.77
11971;BME280;6045;42.682;23.294;2024-03-08T01:32:41;94634.78;;;6.81;86.89
11971;BME280;6045;42.682;23.294;2024-03-08T01:35:09;94634.16;;;6.85;86.40
11971;BME280;6045;42.682;23.294;2024-03-08T01:37:36;94630.72;;;6.78;86.75
11971;BME280;6045;42.682;23.294;2024-03-08T01:40:04;94633.16;;;6.86;86.56
11971;BME280;6045;42.682;23.294;2024-03-08T01:42:31;94627.44;;;6.76;86.34
11971;BME280;6045;42.682;23.294;2024-03-08T01:44:58;94630.94;;;6.70;86.47
11971;BME280;6045;42.682;23.294;2024-03-08T01:47:27;94628.06;;;6.72;86.72
11971;BME280;6045;42.682;23.294;2024-03-08T01:49:54;94621.13;;;6.77;86.24
11971;BME280;6045;42.682;23.294;2024-03-08T01:52:21;94629.28;;;6.82;86.16
11971;BME280;6045;42.682;23.294;2024-03-08T01:54:51;94623.16;;;6.75;85.89
11971;BME280;6045;42.682;23.294;2024-03-08T01:57:18;94623.97;;;6.76;86.12
11971;BME280;6045;42.682;23.294;2024-03-08T01:59:45;94629.47;;;6.81;86.03
11971;BME280;6045;42.682;23.294;2024-03-08T02:02:14;94620.91;;;6.79;85.72
11971;BME280;6045;42.682;23.294;2024-03-08T02:04:47;94621.31;;;6.82;85.39
11971;BME280;6045;42.682;23.294;2024-03-08T02:07:14;94615.78;;;6.90;85.20
11971;BME280;6045;42.682;23.294;2024-03-08T02:09:41;94624.34;;;6.93;85.18
11971;BME280;6045;42.682;23.294;2024-03-08T02:12:09;94613.50;;;7.01;84.66
11971;BME280;6045;42.682;23.294;2024-03-08T02:14:39;94619.84;;;7.06;84.84
11971;BME280;6045;42.682;23.294;2024-03-08T02:17:07;94624.34;;;7.06;84.67
11971;BME280;6045;42.682;23.294;2024-03-08T02:19:33;94622.50;;;6.93;85.15
11971;BME280;6045;42.682;23.294;2024-03-08T02:22:03;94626.00;;;6.94;85.10
11971;BME280;6045;42.682;23.294;2024-03-08T02:24:31;94625.78;;;6.95;85.06
11971;BME280;6045;42.682;23.294;2024-03-08T02:26:58;94629.25;;;6.96;85.13
11971;BME280;6045;42.682;23.294;2024-03-08T02:29:25;94629.66;;;7.06;85.05
11971;BME280;6045;42.682;23.294;2024-03-08T02:31:52;94636.78;;;7.18;84.51
11971;BME280;6045;42.682;23.294;2024-03-08T02:34:21;94630.03;;;7.22;84.76
11971;BME280;6045;42.682;23.294;2024-03-08T02:36:48;94635.75;;;7.19;84.79
11971;BME280;6045;42.682;23.294;2024-03-08T02:39:16;94635.16;;;7.11;84.37
11971;BME280;6045;42.682;23.294;2024-03-08T02:41:45;94644.38;;;7.08;83.82
11971;BME280;6045;42.682;23.294;2024-03-08T02:44:12;94642.53;;;6.96;82.37
11971;BME280;6045;42.682;23.294;2024-03-08T02:46:40;94634.75;;;7.07;81.87
11971;BME280;6045;42.682;23.294;2024-03-08T02:49:07;94633.75;;;7.02;80.79
11971;BME280;6045;42.682;23.294;2024-03-08T02:51:34;94633.13;;;7.13;80.17
11971;BME280;6045;42.682;23.294;2024-03-08T02:54:02;94645.34;;;7.14;78.14
11971;BME280;6045;42.682;23.294;2024-03-08T02:56:31;94636.59;;;7.00;77.98
11971;BME280;6045;42.682;23.294;2024-03-08T02:59:00;94641.72;;;7.08;77.16
11971;BME280;6045;42.682;23.294;2024-03-08T03:01:28;94635.75;;;7.19;76.30
11971;BME280;6045;42.682;23.294;2024-03-08T03:03:55;94645.56;;;7.25;75.28
11971;BME280;6045;42.682;23.294;2024-03-08T03:06:22;94639.63;;;7.30;75.02
11971;BME280;6045;42.682;23.294;2024-03-08T03:08:49;94644.13;;;7.23;74.96
11971;BME280;6045;42.682;23.294;2024-03-08T03:11:16;94648.22;;;7.19;75.93
11971;BME280;6045;42.682;23.294;2024-03-08T03:13:45;94641.91;;;7.13;77.16
11971;BME280;6045;42.682;23.294;2024-03-08T03:16:17;94644.34;;;7.15;77.20
11971;BME280;6045;42.682;23.294;2024-03-08T03:18:45;94642.09;;;7.12;77.40
11971;BME280;6045;42.682;23.294;2024-03-08T03:21:12;94649.66;;;7.15;76.65
11971;BME280;6045;42.682;23.294;2024-03-08T03:23:39;94649.84;;;7.20;75.50
11971;BME280;6045;42.682;23.294;2024-03-08T03:26:07;94651.28;;;7.09;76.61
11971;BME280;6045;42.682;23.294;2024-03-08T03:28:36;94652.34;;;6.95;76.98
11971;BME280;6045;42.682;23.294;2024-03-08T03:31:06;94647.88;;;6.82;77.32
11971;BME280;6045;42.682;23.294;2024-03-08T03:33:33;94651.53;;;6.88;77.30
11971;BME280;6045;42.682;23.294;2024-03-08T03:36:03;94653.81;;;6.84;75.79
11971;BME280;6045;42.682;23.294;2024-03-08T03:38:30;94658.09;;;6.79;75.91
11971;BME280;6045;42.682;23.294;2024-03-08T03:41:06;94663.81;;;6.76;76.61
11971;BME280;6045;42.682;23.294;2024-03-08T03:43:35;94669.13;;;6.76;77.39
11971;BME280;6045;42.682;23.294;2024-03-08T03:46:06;94668.31;;;6.62;77.44
11971;BME280;6045;42.682;23.294;2024-03-08T03:48:38;94672.00;;;6.74;76.72
11971;BME280;6045;42.682;23.294;2024-03-08T03:51:05;94674.03;;;6.66;76.58
11971;BME280;6045;42.682;23.294;2024-03-08T03:53:33;94673.44;;;6.70;77.17
11971;BME280;6045;42.682;23.294;2024-03-08T03:56:00;94673.63;;;6.75;76.72
11971;BME280;6045;42.682;23.294;2024-03-08T03:58:27;94678.94;;;6.75;76.71
11971;BME280;6045;42.682;23.294;2024-03-08T04:00:54;94676.28;;;6.88;76.14
11971;BME280;6045;42.682;23.294;2024-03-08T04:03:22;94678.09;;;7.01;75.55
11971;BME280;6045;42.682;23.294;2024-03-08T04:05:49;94689.75;;;6.94;75.57
11971;BME280;6045;42.682;23.294;2024-03-08T04:08:16;94688.72;;;7.08;74.73
11971;BME280;6045;42.682;23.294;2024-03-08T04:10:46;94694.22;;;7.00;75.02
11971;BME280;6045;42.682;23.294;2024-03-08T04:13:13;94696.06;;;6.93;75.37
11971;BME280;6045;42.682;23.294;2024-03-08T04:15:41;94693.03;;;6.96;75.29
11971;BME280;6045;42.682;23.294;2024-03-08T04:18:09;94699.75;;;7.05;75.14
11971;BME280;6045;42.682;23.294;2024-03-08T04:20:39;94693.25;;;6.87;76.25
11971;BME280;6045;42.682;23.294;2024-03-08T04:23:06;94696.88;;;7.00;75.91
11971;BME280;6045;42.682;23.294;2024-03-08T04:25:33;94705.91;;;6.99;75.13
11971;BME280;6045;42.682;23.294;2024-03-08T04:28:00;94699.97;;;7.03;75.31
11971;BME280;6045;42.682;23.294;2024-03-08T04:30:27;94710.41;;;6.92;75.75
11971;BME280;6045;42.682;23.294;2024-03-08T04:32:55;94715.72;;;6.92;75.87
11971;BME280;6045;42.682;23.294;2024-03-08T04:35:22;94708.75;;;6.90;75.58
11971;BME280;6045;42.682;23.294;2024-03-08T04:37:50;94716.94;;;6.96;75.86
11971;BME280;6045;42.682;23.294;2024-03-08T04:40:17;94720.81;;;6.86;77.58
11971;BME280;6045;42.682;23.294;2024-03-08T04:42:44;94713.28;;;6.90;78.69
11971;BME280;6045;42.682;23.294;2024-03-08T04:45:11;94715.28;;;6.88;78.95
11971;BME280;6045;42.682;23.294;2024-03-08T04:47:39;94717.34;;;6.86;79.52
11971;BME280;6045;42.682;23.294;2024-03-08T04:50:07;94716.34;;;6.87;78.90
11971;BME280;6045;42.682;23.294;2024-03-08T04:52:34;94723.91;;;6.90;79.70
11971;BME280;6045;42.682;23.294;2024-03-08T04:55:04;94721.44;;;6.88;79.63
11971;BME280;6045;42.682;23.294;2024-03-08T04:57:32;94718.59;;;6.90;79.38
11971;BME280;6045;42.682;23.294;2024-03-08T04:59:59;94729.22;;;6.90;79.16
11971;BME280;6045;42.682;23.294;2024-03-08T05:02:26;94728.97;;;6.78;79.76
11971;BME280;6045;42.682;23.294;2024-03-08T05:04:52;94732.06;;;6.82;79.82
11971;BME280;6045;42.682;23.294;2024-03-08T05:07:19;94731.44;;;6.86;79.25
11971;BME280;6045;42.682;23.294;2024-03-08T05:09:46;94734.91;;;6.94;78.50
11971;BME280;6045;42.682;23.294;2024-03-08T05:12:18;94736.56;;;6.75;79.38
11971;BME280;6045;42.682;23.294;2024-03-08T05:14:45;94732.06;;;6.75;79.65
11971;BME280;6045;42.682;23.294;2024-03-08T05:17:15;94740.22;;;6.74;79.66
11971;BME280;6045;42.682;23.294;2024-03-08T05:19:43;94736.75;;;6.80;80.94
11971;BME280;6045;42.682;23.294;2024-03-08T05:22:10;94743.69;;;6.74;84.35
11971;BME280;6045;42.682;23.294;2024-03-08T05:24:37;94745.34;;;6.75;83.56
11971;BME280;6045;42.682;23.294;2024-03-08T05:27:04;94747.38;;;6.86;82.65
11971;BME280;6045;42.682;23.294;2024-03-08T05:29:33;94754.13;;;6.82;81.67
11971;BME280;6045;42.682;23.294;2024-03-08T05:32:00;94765.75;;;6.68;81.26
11971;BME280;6045;42.682;23.294;2024-03-08T05:34:28;94766.78;;;6.61;81.39
11971;BME280;6045;42.682;23.294;2024-03-08T05:36:55;94771.69;;;6.64;82.13
11971;BME280;6045;42.682;23.294;2024-03-08T05:39:23;94775.53;;;6.55;82.41
11971;BME280;6045;42.682;23.294;2024-03-08T05:41:50;94769.81;;;6.51;81.72
11971;BME280;6045;42.682;23.294;2024-03-08T05:44:18;94775.13;;;6.51;82.00
11971;BME280;6045;42.682;23.294;2024-03-08T05:46:46;94786.13;;;6.48;82.97
11971;BME280;6045;42.682;23.294;2024-03-08T05:49:13;94781.22;;;6.39;81.95
11971;BME280;6045;42.682;23.294;2024-03-08T05:51:40;94782.47;;;6.43;83.24
11971;BME280;6045;42.682;23.294;2024-03-08T05:54:09;94792.88;;;6.44;83.73
11971;BME280;6045;42.682;23.294;2024-03-08T05:56:39;94793.25;;;6.35;83.63
11971;BME280;6045;42.682;23.294;2024-03-08T05:59:07;94789.59;;;6.42;82.42
11971;BME280;6045;42.682;23.294;2024-03-08T06:01:34;94793.28;;;6.48;83.23
11971;BME280;6045;42.682;23.294;2024-03-08T06:04:04;94798.41;;;6.49;82.19
11971;BME280;6045;42.682;23.294;2024-03-08T06:06:31;94800.69;;;6.59;81.52
11971;BME280;6045;42.682;23.294;2024-03-08T06:08:58;94806.59;;;6.61;81.90
11971;BME280;6045;42.682;23.294;2024-03-08T06:11:25;94807.03;;;6.77;80.86
11971;BME280;6045;42.682;23.294;2024-03-08T06:13:54;94808.88;;;6.70;80.61
11971;BME280;6045;42.682;23.294;2024-03-08T06:16:25;94802.34;;;6.66;84.14
11971;BME280;6045;42.682;23.294;2024-03-08T06:18:55;94819.09;;;6.80;84.11
11971;BME280;6045;42.682;23.294;2024-03-08T06:21:24;94818.44;;;6.71;82.02
11971;BME280;6045;42.682;23.294;2024-03-08T06:23:52;94809.66;;;6.64;82.34
11971;BME280;6045;42.682;23.294;2024-03-08T06:29:41;94822.09;;;6.57;82.63
11971;BME280;6045;42.682;23.294;2024-03-08T06:32:08;94817.59;;;6.51;84.13
11971;BME280;6045;42.682;23.294;2024-03-08T06:34:35;94817.91;;;7.22;94.16
11971;BME280;6045;42.682;23.294;2024-03-08T06:37:03;94820.38;;;6.97;84.14
11971;BME280;6045;42.682;23.294;2024-03-08T06:39:30;94826.84;;;6.75;81.37
11971;BME280;6045;42.682;23.294;2024-03-08T06:41:58;94828.47;;;6.69;81.20
11971;BME280;6045;42.682;23.294;2024-03-08T06:44:25;94827.84;;;6.67;80.48
11971;BME280;6045;42.682;23.294;2024-03-08T06:46:52;94835.19;;;6.65;80.14
11971;BME280;6045;42.682;23.294;2024-03-08T06:49:19;94833.38;;;6.59;79.88
11971;BME280;6045;42.682;23.294;2024-03-08T06:51:46;94840.91;;;6.69;79.67
11971;BME280;6045;42.682;23.294;2024-03-08T06:54:14;94834.59;;;6.76;79.49
11971;BME280;6045;42.682;23.294;2024-03-08T06:56:41;94836.44;;;6.76;79.60
11971;BME280;6045;42.682;23.294;2024-03-08T06:59:09;94837.28;;;6.83;79.57
11971;BME280;6045;42.682;23.294;2024-03-08T07:01:36;94843.03;;;6.86;78.55
11971;BME280;6045;42.682;23.294;2024-03-08T07:04:04;94839.16;;;6.96;78.83
11971;BME280;6045;42.682;23.294;2024-03-08T07:06:31;94843.06;;;7.06;78.33
11971;BME280;6045;42.682;23.294;2024-03-08T07:09:03;94837.75;;;7.13;77.01
11971;BME280;6045;42.682;23.294;2024-03-08T07:11:32;94839.19;;;7.22;78.67
11971;BME280;6045;42.682;23.294;2024-03-08T07:14:00;94835.94;;;7.39;77.59
11971;BME280;6045;42.682;23.294;2024-03-08T07:16:31;94835.91;;;7.46;75.10
11971;BME280;6045;42.682;23.294;2024-03-08T07:18:57;94837.53;;;7.47;76.18
11971;BME280;6045;42.682;23.294;2024-03-08T07:21:30;94839.38;;;7.66;78.80
11971;BME280;6045;42.682;23.294;2024-03-08T07:24:04;94849.19;;;7.66;76.36
11971;BME280;6045;42.682;23.294;2024-03-08T07:26:47;94846.13;;;7.62;75.38
11971;BME280;6045;42.682;23.294;2024-03-08T07:29:18;94849.56;;;7.82;78.01
11971;BME280;6045;42.682;23.294;2024-03-08T07:31:46;94852.88;;;7.71;74.87
11971;BME280;6045;42.682;23.294;2024-03-08T07:34:27;94854.91;;;7.49;76.69
11971;BME280;6045;42.682;23.294;2024-03-08T07:36:55;94857.75;;;8.00;82.67
11971;BME280;6045;42.682;23.294;2024-03-08T07:39:23;94856.94;;;7.80;76.77
11971;BME280;6045;42.682;23.294;2024-03-08T07:41:52;94859.59;;;7.87;75.79
11971;BME280;6045;42.682;23.294;2024-03-08T07:44:19;94858.97;;;7.85;75.95
11971;BME280;6045;42.682;23.294;2024-03-08T07:46:46;94857.78;;;7.81;75.81
11971;BME280;6045;42.682;23.294;2024-03-08T07:49:14;94860.84;;;7.91;75.97
11971;BME280;6045;42.682;23.294;2024-03-08T07:51:41;94859.59;;;7.87;75.64
11971;BME280;6045;42.682;23.294;2024-03-08T07:54:10;94855.50;;;7.91;75.41
11971;BME280;6045;42.682;23.294;2024-03-08T07:56:38;94851.13;;;8.16;77.08
11971;BME280;6045;42.682;23.294;2024-03-08T07:59:07;94870.34;;;8.24;74.93
11971;BME280;6045;42.682;23.294;2024-03-08T08:01:34;94861.38;;;8.32;74.92
11971;BME280;6045;42.682;23.294;2024-03-08T08:04:01;94864.41;;;8.42;73.79
11971;BME280;6045;42.682;23.294;2024-03-08T08:06:28;94863.09;;;8.58;73.55
11971;BME280;6045;42.682;23.294;2024-03-08T08:08:57;94865.53;;;8.66;71.86
11971;BME280;6045;42.682;23.294;2024-03-08T08:11:26;94867.94;;;8.74;71.81
11971;BME280;6045;42.682;23.294;2024-03-08T08:13:53;94866.25;;;8.86;71.00
11971;BME280;6045;42.682;23.294;2024-03-08T08:16:22;94858.97;;;9.06;70.67
11971;BME280;6045;42.682;23.294;2024-03-08T08:18:51;94854.66;;;9.05;70.43
11971;BME280;6045;42.682;23.294;2024-03-08T08:21:18;94849.72;;;9.09;70.47
11971;BME280;6045;42.682;23.294;2024-03-08T08:23:45;94853.31;;;9.27;69.59
11971;BME280;6045;42.682;23.294;2024-03-08T08:26:12;94850.69;;;9.45;69.07
11971;BME280;6045;42.682;23.294;2024-03-08T08:28:39;94849.88;;;9.70;69.53
11971;BME280;6045;42.682;23.294;2024-03-08T08:31:09;94857.34;;;9.86;70.51
11971;BME280;6045;42.682;23.294;2024-03-08T08:33:37;94854.13;;;10.20;70.13
11971;BME280;6045;42.682;23.294;2024-03-08T08:36:06;94853.50;;;10.43;68.91
11971;BME280;6045;42.682;23.294;2024-03-08T08:38:33;94848.19;;;10.72;67.43
11971;BME280;6045;42.682;23.294;2024-03-08T08:41:00;94853.38;;;11.15;66.15
11971;BME280;6045;42.682;23.294;2024-03-08T08:43:28;94852.75;;;11.43;64.22
11971;BME280;6045;42.682;23.294;2024-03-08T08:45:56;94847.41;;;11.43;64.69
11971;BME280;6045;42.682;23.294;2024-03-08T08:48:22;94838.66;;;11.36;64.18
11971;BME280;6045;42.682;23.294;2024-03-08T08:50:51;94840.69;;;11.52;61.34
11971;BME280;6045;42.682;23.294;2024-03-08T08:53:19;94835.59;;;11.09;62.70
11971;BME280;6045;42.682;23.294;2024-03-08T08:55:47;94838.25;;;11.50;60.17
11971;BME280;6045;42.682;23.294;2024-03-08T08:58:14;94837.97;;;11.82;59.76
11971;BME280;6045;42.682;23.294;2024-03-08T09:00:41;94844.63;;;12.02;58.90
11971;BME280;6045;42.682;23.294;2024-03-08T09:03:09;94842.38;;;11.99;59.55
11971;BME280;6045;42.682;23.294;2024-03-08T09:05:37;94844.16;;;12.17;57.59
11971;BME280;6045;42.682;23.294;2024-03-08T09:08:06;94842.06;;;11.84;59.27
11971;BME280;6045;42.682;23.294;2024-03-08T09:10:34;94838.81;;;11.94;59.48
11971;BME280;6045;42.682;23.294;2024-03-08T09:13:01;94839.00;;;11.81;59.94
11971;BME280;6045;42.682;23.294;2024-03-08T09:15:29;94838.00;;;11.52;59.03
11971;BME280;6045;42.682;23.294;2024-03-08T09:17:56;94841.59;;;11.34;58.28
11971;BME280;6045;42.682;23.294;2024-03-08T09:20:24;94835.94;;;11.13;59.23
11971;BME280;6045;42.682;23.294;2024-03-08T09:22:52;94842.28;;;11.30;59.42
11971;BME280;6045;42.682;23.294;2024-03-08T09:25:21;94840.09;;;11.50;58.84
11971;BME280;6045;42.682;23.294;2024-03-08T09:27:48;94835.88;;;11.42;58.51
11971;BME280;6045;42.682;23.294;2024-03-08T09:30:16;94830.84;;;11.87;56.55
11971;BME280;6045;42.682;23.294;2024-03-08T09:32:43;94828.06;;;12.28;55.64
11971;BME280;6045;42.682;23.294;2024-03-08T09:35:10;94833.78;;;12.72;54.06
11971;BME280;6045;42.682;23.294;2024-03-08T09:37:37;94830.06;;;12.73;53.52
11971;BME280;6045;42.682;23.294;2024-03-08T09:40:05;94834.56;;;12.84;56.11
11971;BME280;6045;42.682;23.294;2024-03-08T09:42:36;94828.38;;;13.85;54.72
11971;BME280;6045;42.682;23.294;2024-03-08T09:45:08;94824.78;;;15.16;50.60
11971;BME280;6045;42.682;23.294;2024-03-08T09:47:38;94825.00;;;16.73;44.14
11971;BME280;6045;42.682;23.294;2024-03-08T09:50:07;94826.53;;;16.54;42.94
11971;BME280;6045;42.682;23.294;2024-03-08T09:52:35;94817.25;;;15.71;45.11
11971;BME280;6045;42.682;23.294;2024-03-08T09:55:04;94823.81;;;15.27;68.64
11971;BME280;6045;42.682;23.294;2024-03-08T09:57:33;94826.75;;;15.47;67.25
11971;BME280;6045;42.682;23.294;2024-03-08T10:00:03;94822.25;;;15.04;50.41
11971;BME280;6045;42.682;23.294;2024-03-08T10:02:45;94824.06;;;14.55;50.98
11971;BME280;6045;42.682;23.294;2024-03-08T10:05:12;94823.59;;;14.25;50.24
11971;BME280;6045;42.682;23.294;2024-03-08T10:07:39;94834.53;;;13.68;51.71
11971;BME280;6045;42.682;23.294;2024-03-08T10:10:08;94835.69;;;13.56;51.64
11971;BME280;6045;42.682;23.294;2024-03-08T10:12:39;94835.00;;;13.32;52.91
11971;BME280;6045;42.682;23.294;2024-03-08T10:15:09;94825.88;;;13.33;52.89
11971;BME280;6045;42.682;23.294;2024-03-08T10:17:37;94828.00;;;12.52;53.99
11971;BME280;6045;42.682;23.294;2024-03-08T10:20:13;94827.81;;;12.30;56.43
11971;BME280;6045;42.682;23.294;2024-03-08T10:22:41;94837.31;;;12.61;59.47
11971;BME280;6045;42.682;23.294;2024-03-08T10:25:10;94835.78;;;12.76;57.34
11971;BME280;6045;42.682;23.294;2024-03-08T10:27:38;94829.31;;;12.49;56.40
11971;BME280;6045;42.682;23.294;2024-03-08T10:30:10;94835.41;;;12.33;55.99
11971;BME280;6045;42.682;23.294;2024-03-08T10:32:38;94831.78;;;12.04;56.50
11971;BME280;6045;42.682;23.294;2024-03-08T10:35:07;94832.94;;;11.97;58.21
11971;BME280;6045;42.682;23.294;2024-03-08T10:37:45;94822.59;;;12.12;57.85
11971;BME280;6045;42.682;23.294;2024-03-08T10:40:16;94820.03;;;12.05;56.82
11971;BME280;6045;42.682;23.294;2024-03-08T10:42:51;94811.06;;;12.11;56.89
11971;BME280;6045;42.682;23.294;2024-03-08T10:45:30;94807.00;;;13.45;85.30
11971;BME280;6045;42.682;23.294;2024-03-08T10:48:07;94806.69;;;14.08;68.72
11971;BME280;6045;42.682;23.294;2024-03-08T10:50:36;94803.94;;;14.03;51.90
11971;BME280;6045;42.682;23.294;2024-03-08T10:53:06;94801.31;;;13.41;56.00
11971;BME280;6045;42.682;23.294;2024-03-08T10:56:02;94803.69;;;13.10;51.57
11971;BME280;6045;42.682;23.294;2024-03-08T10:59:06;94803.66;;;12.93;56.81
11971;BME280;6045;42.682;23.294;2024-03-08T11:01:47;94802.94;;;13.26;56.18
11971;BME280;6045;42.682;23.294;2024-03-08T11:04:14;94793.84;;;13.43;53.93
11971;BME280;6045;42.682;23.294;2024-03-08T11:06:45;94789.38;;;13.32;54.14
11971;BME280;6045;42.682;23.294;2024-03-08T11:09:27;94796.75;;;13.25;54.26
11971;BME280;6045;42.682;23.294;2024-03-08T11:12:22;94785.38;;;13.35;52.99
11971;BME280;6045;42.682;23.294;2024-03-08T11:14:52;94773.72;;;13.96;52.83
11971;BME280;6045;42.682;23.294;2024-03-08T11:17:40;94775.28;;;15.75;49.41
11971;BME280;6045;42.682;23.294;2024-03-08T11:20:11;94778.47;;;17.18;46.48
11971;BME280;6045;42.682;23.294;2024-03-08T11:22:50;94776.53;;;17.03;41.97
11971;BME280;6045;42.682;23.294;2024-03-08T11:25:36;94775.72;;;15.99;43.91
11971;BME280;6045;42.682;23.294;2024-03-08T11:28:08;94775.13;;;15.28;46.61
11971;BME280;6045;42.682;23.294;2024-03-08T11:30:36;94770.78;;;15.27;46.70
11971;BME280;6045;42.682;23.294;2024-03-08T11:33:11;94768.81;;;16.13;47.39
11971;BME280;6045;42.682;23.294;2024-03-08T11:35:39;94760.75;;;17.52;42.89
11971;BME280;6045;42.682;23.294;2024-03-08T11:38:08;94759.56;;;18.38;41.99
11971;BME280;6045;42.682;23.294;2024-03-08T11:40:35;94763.59;;;19.20;41.98
11971;BME280;6045;42.682;23.294;2024-03-08T11:43:03;94759.19;;;19.78;39.16
11971;BME280;6045;42.682;23.294;2024-03-08T11:45:34;94758.19;;;19.98;37.64
11971;BME280;6045;42.682;23.294;2024-03-08T11:48:03;94757.47;;;20.73;37.87
11971;BME280;6045;42.682;23.294;2024-03-08T11:50:31;94760.28;;;20.87;35.06
11971;BME280;6045;42.682;23.294;2024-03-08T11:53:03;94752.78;;;20.55;37.60
11971;BME280;6045;42.682;23.294;2024-03-08T11:55:30;94755.09;;;21.14;33.76
11971;BME280;6045;42.682;23.294;2024-03-08T11:58:04;94745.47;;;21.77;37.19
11971;BME280;6045;42.682;23.294;2024-03-08T12:00:33;94753.00;;;22.18;30.67
11971;BME280;6045;42.682;23.294;2024-03-08T12:03:05;94747.09;;;21.23;32.22
11971;BME280;6045;42.682;23.294;2024-03-08T12:05:34;94744.16;;;20.19;33.46
11971;BME280;6045;42.682;23.294;2024-03-08T12:08:01;94749.03;;;19.55;34.68
11971;BME280;6045;42.682;23.294;2024-03-08T12:10:30;94750.53;;;18.78;35.43
11971;BME280;6045;42.682;23.294;2024-03-08T12:12:58;94748.44;;;18.60;38.50
11971;BME280;6045;42.682;23.294;2024-03-08T12:15:26;94757.25;;;18.91;36.10
11971;BME280;6045;42.682;23.294;2024-03-08T12:17:54;94742.88;;;18.06;37.78
11971;BME280;6045;42.682;23.294;2024-03-08T12:20:23;94754.38;;;16.91;39.56
11971;BME280;6045;42.682;23.294;2024-03-08T12:22:54;94758.13;;;16.33;41.73
11971;BME280;6045;42.682;23.294;2024-03-08T12:25:22;94746.66;;;15.69;44.49
11971;BME280;6045;42.682;23.294;2024-03-08T12:27:52;94749.78;;;15.56;45.00
11971;BME280;6045;42.682;23.294;2024-03-08T12:30:23;94739.84;;;15.30;43.57
11971;BME280;6045;42.682;23.294;2024-03-08T12:32:54;94743.25;;;15.20;44.98
11971;BME280;6045;42.682;23.294;2024-03-08T12:35:23;94742.44;;;14.93;45.42
11971;BME280;6045;42.682;23.294;2024-03-08T12:37:53;94739.06;;;15.34;44.88
11971;BME280;6045;42.682;23.294;2024-03-08T12:40:31;94740.75;;;16.61;41.98
11971;BME280;6045;42.682;23.294;2024-03-08T12:43:00;94728.56;;;17.70;39.16
11971;BME280;6045;42.682;23.294;2024-03-08T12:45:28;94732.75;;;18.57;38.61
11971;BME280;6045;42.682;23.294;2024-03-08T12:47:55;94728.53;;;18.95;37.10
11971;BME280;6045;42.682;23.294;2024-03-08T12:50:23;94726.97;;;19.28;37.47
11971;BME280;6045;42.682;23.294;2024-03-08T12:52:52;94726.38;;;19.41;36.92
11971;BME280;6045;42.682;23.294;2024-03-08T12:55:19;94726.97;;;19.28;37.83
11971;BME280;6045;42.682;23.294;2024-03-08T12:57:46;94718.50;;;19.78;35.54
11971;BME280;6045;42.682;23.294;2024-03-08T13:00:17;94718.34;;;19.93;49.45
11971;BME280;6045;42.682;23.294;2024-03-08T13:02:49;94722.75;;;20.47;33.59
11971;BME280;6045;42.682;23.294;2024-03-08T13:05:17;94718.47;;;20.64;34.52
11971;BME280;6045;42.682;23.294;2024-03-08T13:07:55;94714.50;;;20.75;34.47
11971;BME280;6045;42.682;23.294;2024-03-08T13:10:22;94718.78;;;20.05;34.01
11971;BME280;6045;42.682;23.294;2024-03-08T13:13:04;94726.53;;;19.10;35.14
11971;BME280;6045;42.682;23.294;2024-03-08T13:15:37;94726.69;;;18.85;36.68
11971;BME280;6045;42.682;23.294;2024-03-08T13:18:07;94724.59;;;19.21;34.19
11971;BME280;6045;42.682;23.294;2024-03-08T13:20:36;94723.84;;;19.05;34.58